Time;durP1;ratioP1;P1;durP2;ratioP2;P2;SDS_P1;SDS_P2;PMS_P1;PMS_P2;Temp;Humidity;BMP_temperature;BMP_pressure;BME280_temperature;BME280_humidity;BME280_pressure;Samples;Min_cycle;Max_cycle;Signal;HPM_P1;HPM_P2
2023/06/23 00:00:22;;;;;;;14.40;10.70;;;;;;;19.37;88.52;98896.54;273935;1269;22205;-85
2023/06/23 00:07:19;;;;;;;12.60;11.00;;;;;;;19.31;88.75;98884.96;273994;1269;22195;-86
2023/06/23 00:14:01;;;;;;;13.60;10.80;;;;;;;19.23;89.36;98868.42;272416;1270;22510;-86
2023/06/23 00:20:43;;;;;;;12.90;11.10;;;;;;;19.17;89.80;98852.16;270097;1269;22552;-86
2023/06/23 00:27:30;;;;;;;12.40;10.00;;;;;;;19.09;90.69;98847.99;270411;1267;22536;-85
2023/06/23 00:33:31;;;;;;;14.20;10.60;;;;;;;19.04;91.25;98849.73;269880;1269;22683;-85
2023/06/23 00:39:41;;;;;;;13.50;10.70;;;;;;;19.01;91.98;98844.49;271095;1267;22440;-86
2023/06/23 00:45:59;;;;;;;14.50;10.70;;;;;;;19.03;92.47;98850.47;273965;1270;23218;-86
2023/06/23 00:52:16;;;;;;;14.80;11.50;;;;;;;19.02;92.79;98841.92;273906;1269;22498;-86
2023/06/23 00:58:34;;;;;;;13.70;11.40;;;;;;;18.94;93.06;98836.42;273921;1269;22860;-86
2023/06/23 01:04:49;;;;;;;13.50;11.20;;;;;;;18.85;93.24;98828.27;273785;1270;22350;-86
2023/06/23 01:11:41;;;;;;;14.30;11.50;;;;;;;18.73;93.43;98830.20;273603;1269;22377;-86
2023/06/23 01:17:48;;;;;;;16.40;12.40;;;;;;;18.60;94.13;98820.46;273956;1270;22886;-86
2023/06/23 01:24:31;;;;;;;14.00;12.00;;;;;;;18.54;94.65;98805.38;274109;1269;22214;-85
2023/06/23 01:30:54;;;;;;;13.50;10.60;;;;;;;18.50;95.15;98794.95;273825;1269;22217;-87
2023/06/23 01:37:37;;;;;;;15.10;11.70;;;;;;;18.39;95.43;98789.42;272764;1257;22573;-86
2023/06/23 01:44:01;;;;;;;13.60;10.60;;;;;;;18.35;96.16;98799.41;270239;1270;23093;-86
2023/06/23 01:50:08;;;;;;;16.60;12.50;;;;;;;18.36;96.74;98799.46;272138;1276;22247;-85
2023/06/23 01:56:54;;;;;;;14.90;12.10;;;;;;;18.32;96.71;98798.59;273857;1270;22635;-86
2023/06/23 02:03:17;;;;;;;14.50;11.70;;;;;;;18.24;97.38;98773.30;273728;1270;23052;-86
2023/06/23 02:09:36;;;;;;;15.20;12.20;;;;;;;18.16;97.60;98757.72;273848;1270;23062;-86
2023/06/23 02:16:02;;;;;;;;;;;;;;;18.13;97.86;98748.85;270627;1270;25330;-84
2023/06/23 02:22:30;;;;;;;14.70;12.10;;;;;;;18.03;98.52;98727.46;271304;1268;25176;-85
2023/06/23 02:29:03;;;;;;;14.40;10.10;;;;;;;18.00;99.18;98720.83;272077;1270;22859;-85
2023/06/23 02:35:49;;;;;;;15.40;11.90;;;;;;;17.99;99.35;98716.89;270773;1267;22538;-84
2023/06/23 02:42:37;;;;;;;12.20;10.90;;;;;;;17.90;99.54;98738.94;271158;1270;23332;-86
2023/06/23 02:48:44;;;;;;;16.30;12.60;;;;;;;17.97;100.00;98736.48;270418;1253;22625;-85
2023/06/23 02:54:52;;;;;;;14.70;11.70;;;;;;;17.91;99.98;98732.52;270346;1267;22505;-85
2023/06/23 03:01:23;;;;;;;15.80;11.80;;;;;;;17.87;100.00;98736.86;269806;1269;22459;-86
2023/06/23 03:07:25;;;;;;;15.00;12.20;;;;;;;17.85;100.00;98750.52;270746;1258;22512;-86
2023/06/23 03:13:52;;;;;;;15.90;13.10;;;;;;;17.93;100.00;98758.89;273271;1269;23165;-85
2023/06/23 03:20:27;;;;;;;14.00;10.90;;;;;;;18.03;100.00;98773.14;273690;1270;23179;-85
2023/06/23 03:27:18;;;;;;;18.90;12.50;;;;;;;18.13;100.00;98793.27;271745;1270;22839;-85
2023/06/23 03:33:43;;;;;;;15.10;12.50;;;;;;;18.24;100.00;98801.15;272890;1267;23892;-85
2023/06/23 03:39:51;;;;;;;21.30;13.70;;;;;;;18.35;100.00;98802.73;272616;1264;22654;-84
2023/06/23 03:45:54;;;;;;;;;;;;;;;18.44;100.00;98815.14;271321;1260;23364;-84
2023/06/23 03:52:41;;;;;;;20.30;14.20;;;;;;;18.55;100.00;98826.67;270989;1273;22538;-84
2023/06/23 03:58:48;;;;;;;20.50;15.50;;;;;;;18.68;100.00;98819.08;270873;1270;22487;-86
2023/06/23 04:05:16;;;;;;;18.90;15.20;;;;;;;18.83;100.00;98799.55;270346;1270;22533;-85
2023/06/23 04:11:57;;;;;;;;;;;;;;;18.96;100.00;98794.84;270744;1267;24292;-85
2023/06/23 04:18:03;;;;;;;18.10;14.30;;;;;;;19.07;100.00;98794.33;272308;1260;22235;-86
2023/06/23 04:24:28;;;;;;;18.60;14.00;;;;;;;19.19;100.00;98780.59;273497;1270;246058;-86
2023/06/23 04:31:00;;;;;;;15.90;13.10;;;;;;;19.37;100.00;98764.27;273883;1267;22586;-86
2023/06/23 04:37:47;;;;;;;15.70;12.20;;;;;;;19.60;100.00;98767.19;273605;1269;22664;-85
2023/06/23 04:43:54;;;;;;;16.20;12.80;;;;;;;19.81;100.00;98767.67;270985;1260;22217;-85
2023/06/23 04:50:07;;;;;;;16.10;13.10;;;;;;;19.99;100.00;98764.30;273922;1269;22263;-86
2023/06/23 04:56:16;;;;;;;16.40;14.00;;;;;;;20.15;100.00;98746.52;274086;1267;22372;-86
2023/06/23 05:02:25;;;;;;;17.00;13.40;;;;;;;20.36;100.00;98742.38;273035;1270;22285;-86
2023/06/23 05:08:30;;;;;;;17.40;12.20;;;;;;;20.52;100.00;98745.31;274121;1267;22841;-85
2023/06/23 05:14:57;;;;;;;14.80;13.20;;;;;;;20.66;100.00;98747.41;273798;1267;23173;-85
2023/06/23 05:21:01;;;;;;;16.00;13.00;;;;;;;20.80;100.00;98743.27;273185;1267;22595;-84
2023/06/23 05:27:08;;;;;;;16.90;13.20;;;;;;;20.96;100.00;98761.65;273284;1267;23377;-85
2023/06/23 05:33:30;;;;;;;;;;;;;;;21.19;100.00;98760.55;273463;1266;22515;-85
2023/06/23 05:39:39;;;;;;;19.00;13.70;;;;;;;21.43;100.00;98754.65;273950;1268;22350;-85
2023/06/23 05:46:00;;;;;;;17.20;13.20;;;;;;;21.67;100.00;98731.95;273737;1267;22314;-84
2023/06/23 05:52:17;;;;;;;16.70;13.40;;;;;;;21.95;100.00;98722.27;273660;1269;22230;-85
2023/06/23 05:58:59;;;;;;;20.60;13.50;;;;;;;22.28;100.00;98725.71;273751;1267;22311;-84
2023/06/23 06:05:02;;;;;;;18.60;13.40;;;;;;;22.63;100.00;98714.17;274052;1267;22230;-85
2023/06/23 06:11:10;;;;;;;17.30;13.00;;;;;;;22.89;100.00;98698.94;272915;1257;22417;-84
2023/06/23 06:17:11;;;;;;;14.20;12.20;;;;;;;22.97;100.00;98702.73;273667;1264;22736;-85
2023/06/23 06:23:30;;;;;;;15.30;13.40;;;;;;;22.96;100.00;98738.33;273768;1269;23170;-84
2023/06/23 06:29:32;;;;;;;28.80;14.20;;;;;;;22.83;100.00;98852.27;274027;1268;22334;-84
2023/06/23 06:35:57;;;;;;;19.20;11.80;;;;;;;22.53;99.91;98866.70;273796;1269;22282;-85
2023/06/23 06:41:58;;;;;;;14.80;8.10;;;;;;;22.22;98.95;98851.98;273728;1268;22192;-85
2023/06/23 06:48:20;;;;;;;14.70;7.70;;;;;;;22.00;97.82;98855.50;274076;1256;23289;-85
2023/06/23 06:54:26;;;;;;;13.20;6.50;;;;;;;21.88;97.49;98837.59;272983;1269;22729;-86
2023/06/23 07:00:47;;;;;;;11.90;5.40;;;;;;;21.72;97.45;98828.27;272049;1269;23025;-85
2023/06/23 07:07:26;;;;;;;10.60;5.90;;;;;;;21.52;97.23;98818.80;273882;1270;22270;-85
2023/06/23 07:13:28;;;;;;;13.10;5.00;;;;;;;21.32;97.43;98761.95;271491;1269;22557;-86
2023/06/23 07:19:50;;;;;;;13.20;5.30;;;;;;;21.26;97.68;98733.34;270339;1269;22607;-85
2023/06/23 07:25:58;;;;;;;10.50;5.30;;;;;;;21.17;97.75;98732.06;273139;1270;22270;-86
2023/06/23 07:32:01;;;;;;;11.00;5.50;;;;;;;21.00;97.87;98742.26;271059;1269;22657;-85
2023/06/23 07:38:02;;;;;;;12.20;6.30;;;;;;;20.96;97.96;98761.91;273443;1268;22572;-84
2023/06/23 07:44:45;;;;;;;12.10;5.80;;;;;;;20.99;98.30;98794.56;272543;1269;22209;-85
2023/06/23 07:50:47;;;;;;;14.00;6.90;;;;;;;21.01;98.45;98824.46;274038;1269;22365;-86
2023/06/23 07:56:50;;;;;;;13.50;6.50;;;;;;;21.00;98.72;98826.71;273841;1268;23259;-84
2023/06/23 08:03:24;;;;;;;13.90;7.10;;;;;;;20.97;99.16;98817.75;274099;1269;23079;-86
2023/06/23 08:09:26;;;;;;;12.90;7.50;;;;;;;21.00;99.71;98811.94;273977;1269;22369;-86
2023/06/23 08:16:10;;;;;;;10.60;6.80;;;;;;;21.00;99.95;98810.88;270509;1267;22783;-87
2023/06/23 08:23:28;;;;;;;12.60;7.10;;;;;;;20.97;100.00;98837.80;272467;1269;22925;-83
2023/06/23 08:29:33;;;;;;;18.20;7.40;;;;;;;20.97;100.00;98841.54;270630;1269;22183;-85
2023/06/23 08:36:22;;;;;;;13.70;6.60;;;;;;;21.03;100.00;98838.38;270518;1269;22539;-86
2023/06/23 08:42:26;;;;;;;17.00;7.30;;;;;;;21.15;100.00;98837.89;273965;1267;22356;-86
2023/06/23 08:48:30;;;;;;;16.90;7.20;;;;;;;21.29;100.00;98830.02;273857;1269;22229;-87
2023/06/23 08:54:32;;;;;;;19.30;7.60;;;;;;;21.45;100.00;98844.64;274043;1256;22269;-87
2023/06/23 09:00:36;;;;;;;22.40;8.80;;;;;;;21.66;100.00;98847.83;273901;1267;22325;-85
2023/06/23 09:07:18;;;;;;;16.20;8.50;;;;;;;21.88;100.00;98839.48;273951;1267;22312;-86
2023/06/23 09:14:09;;;;;;;20.50;8.60;;;;;;;22.08;100.00;98835.14;273727;1264;22761;-85
2023/06/23 09:20:15;;;;;;;18.50;8.90;;;;;;;22.24;100.00;98842.17;273564;1269;22225;-86
2023/06/23 09:26:18;;;;;;;19.60;8.90;;;;;;;22.45;100.00;98839.35;273790;1268;22983;-87
2023/06/23 09:32:28;;;;;;;15.00;8.60;;;;;;;22.65;99.89;98831.09;273571;1270;23465;-84
2023/06/23 09:38:38;;;;;;;11.80;7.80;;;;;;;22.84;99.41;98838.63;270313;1261;22585;-86
2023/06/23 09:45:23;;;;;;;14.40;7.40;;;;;;;22.92;98.73;98848.41;271096;1267;22155;-86
2023/06/23 09:51:39;;;;;;;18.40;7.70;;;;;;;23.01;98.67;98849.01;270550;1269;23521;-84
2023/06/23 09:57:42;;;;;;;16.60;8.10;;;;;;;23.28;98.96;98851.30;271731;1269;22360;-85
2023/06/23 10:03:53;;;;;;;14.40;8.60;;;;;;;23.52;98.22;98861.40;273848;1270;22447;-86
2023/06/23 10:10:31;;;;;;;18.50;9.50;;;;;;;23.66;97.64;98872.90;272944;1272;22273;-85
2023/06/23 10:16:46;;;;;;;15.30;8.90;;;;;;;23.83;97.22;98863.95;272887;1259;22240;-85
2023/06/23 10:22:48;;;;;;;17.00;8.50;;;;;;;23.93;96.92;98848.70;272940;1272;22251;-84
2023/06/23 10:28:54;;;;;;;14.10;8.30;;;;;;;24.12;96.56;98837.31;271787;1272;22277;-84
2023/06/23 10:35:49;;;;;;;18.20;8.10;;;;;;;24.14;95.95;98840.08;270801;1272;22646;-85
2023/06/23 10:41:52;;;;;;;15.40;8.50;;;;;;;24.17;95.85;98841.37;272845;1269;22326;-85
2023/06/23 10:48:00;;;;;;;14.90;8.50;;;;;;;24.24;95.65;98829.88;273880;1259;22224;-84
2023/06/23 10:54:25;;;;;;;19.50;8.70;;;;;;;24.28;95.47;98830.77;271995;1267;22562;-84
2023/06/23 11:00:31;;;;;;;15.30;8.70;;;;;;;24.32;95.01;98851.63;273938;1270;22251;-84
2023/06/23 11:07:00;;;;;;;14.60;8.80;;;;;;;24.29;94.90;98848.90;273546;1267;22550;-84
2023/06/23 11:13:01;;;;;;;18.90;9.40;;;;;;;24.25;94.75;98841.48;273883;1269;22178;-85
2023/06/23 11:19:28;;;;;;;15.40;8.50;;;;;;;24.19;94.54;98839.13;273642;1269;22237;-85
2023/06/23 11:25:33;;;;;;;16.00;8.30;;;;;;;24.14;94.70;98831.38;273721;1267;23091;-84
2023/06/23 11:31:34;;;;;;;19.10;9.50;;;;;;;24.07;95.40;98819.59;273729;1267;23186;-83
2023/06/23 11:37:59;;;;;;;14.50;8.80;;;;;;;24.00;95.49;98810.23;273713;1269;22484;-85
2023/06/23 11:44:12;;;;;;;20.60;8.80;;;;;;;23.85;95.49;98807.14;272431;1267;23318;-84
2023/06/23 11:50:54;;;;;;;19.90;10.00;;;;;;;23.70;96.15;98829.79;270189;1267;22557;-84
2023/06/23 11:57:32;;;;;;;18.10;9.50;;;;;;;23.66;97.07;98821.32;270701;1269;22561;-84
2023/06/23 12:04:15;;;;;;;17.00;8.80;;;;;;;23.58;97.62;98813.06;270364;1269;22463;-84
2023/06/23 12:10:37;;;;;;;12.70;7.30;;;;;;;23.55;97.86;98830.70;273091;1269;22323;-85
2023/06/23 12:16:51;;;;;;;16.10;9.10;;;;;;;23.45;97.93;98846.52;269627;1269;22504;-85
2023/06/23 12:22:53;;;;;;;13.20;8.00;;;;;;;23.41;98.51;98826.95;273445;1269;22300;-85
2023/06/23 12:29:13;;;;;;;14.30;8.30;;;;;;;23.41;98.69;98807.01;273936;1267;22367;-85
2023/06/23 12:35:35;;;;;;;10.30;7.70;;;;;;;23.44;99.06;98800.89;273847;1269;22985;-84
2023/06/23 12:41:40;;;;;;;16.00;8.40;;;;;;;23.46;99.32;98788.61;273225;1269;25046;-85
2023/06/23 12:48:24;;;;;;;18.90;8.20;;;;;;;23.51;99.19;98799.15;270064;1269;23407;-85
2023/06/23 12:55:09;;;;;;;12.60;8.70;;;;;;;23.59;99.22;98823.95;270761;1268;22647;-85
2023/06/23 13:01:10;;;;;;;22.40;10.10;;;;;;;23.68;99.08;98827.55;270075;1267;25367;-84
2023/06/23 13:07:25;;;;;;;18.20;10.00;;;;;;;23.74;98.55;98818.80;271318;1267;22710;-84
2023/06/23 13:13:26;;;;;;;19.40;10.00;;;;;;;23.77;98.24;98812.93;272096;1268;22539;-85
2023/06/23 13:19:27;;;;;;;15.90;11.30;;;;;;;23.80;98.74;98803.77;270149;1267;23521;-86
2023/06/23 13:25:28;;;;;;;22.70;15.30;;;;;;;23.85;98.63;98803.77;270193;1267;22598;-85
2023/06/23 13:31:29;;;;;;;24.30;15.20;;;;;;;23.93;98.27;98830.64;270358;1263;22542;-84
2023/06/23 13:37:44;;;;;;;22.00;13.80;;;;;;;24.02;97.95;98844.85;269803;1267;22525;-85
2023/06/23 13:43:45;;;;;;;20.30;12.50;;;;;;;24.13;97.59;98862.81;269817;1267;22639;-84
2023/06/23 13:49:47;;;;;;;19.70;12.30;;;;;;;24.20;97.39;98882.23;269382;1268;22667;-84
2023/06/23 13:56:09;;;;;;;21.90;11.90;;;;;;;24.22;97.14;98893.01;272439;1267;22499;-86
2023/06/23 14:02:10;;;;;;;22.20;13.60;;;;;;;24.25;97.26;98881.29;271966;1267;23779;-84
2023/06/23 14:08:15;;;;;;;18.50;11.80;;;;;;;24.30;97.79;98871.77;273843;1267;22238;-85
2023/06/23 14:14:16;;;;;;;17.80;11.50;;;;;;;24.31;98.49;98856.23;273828;1259;22534;-86
2023/06/23 14:20:18;;;;;;;21.00;12.80;;;;;;;24.33;99.15;98844.38;270388;1269;22548;-85
2023/06/23 14:26:33;;;;;;;23.40;13.00;;;;;;;24.41;99.69;98845.04;272983;1267;22574;-85
2023/06/23 14:32:37;;;;;;;16.50;13.20;;;;;;;24.52;99.60;98849.01;271396;1269;22602;-85
2023/06/23 14:38:42;;;;;;;18.20;13.10;;;;;;;24.59;99.46;98836.82;271469;1269;22516;-85
2023/06/23 14:45:19;;;;;;;19.60;13.60;;;;;;;24.71;99.61;98844.20;270830;1269;23086;-84
2023/06/23 14:51:21;;;;;;;18.90;12.90;;;;;;;24.80;99.16;98849.63;271851;1267;22632;-85
2023/06/23 14:57:27;;;;;;;16.30;13.30;;;;;;;24.84;99.05;98828.67;272723;1260;23722;-84
2023/06/23 15:03:28;;;;;;;20.80;12.80;;;;;;;24.87;98.95;98816.98;271747;1267;22581;-85
2023/06/23 15:09:30;;;;;;;24.50;14.50;;;;;;;24.88;99.08;98818.59;273335;1270;23032;-85
2023/06/23 15:15:31;;;;;;;24.90;14.40;;;;;;;24.84;99.27;98831.36;273279;1270;22236;-85
2023/06/23 15:21:33;;;;;;;22.00;13.80;;;;;;;24.83;99.36;98855.06;273298;1256;23357;-85
2023/06/23 15:28:13;;;;;;;21.20;13.80;;;;;;;24.81;99.60;98862.70;272910;1268;22277;-86
2023/06/23 15:34:19;;;;;;;20.10;13.90;;;;;;;24.71;99.93;98854.85;270712;1262;22631;-86
2023/06/23 15:40:20;;;;;;;20.80;14.00;;;;;;;24.65;100.00;98854.07;270432;1270;23045;-86
2023/06/23 15:47:03;;;;;;;21.30;15.30;;;;;;;24.57;100.00;98865.38;270163;1268;23010;-85
2023/06/23 15:53:24;;;;;;;19.50;13.70;;;;;;;24.44;100.00;98876.14;270094;1269;22577;-86
2023/06/23 15:59:43;;;;;;;20.70;13.90;;;;;;;24.25;100.00;98895.17;270624;1269;23404;-84
2023/06/23 16:06:29;;;;;;;32.30;17.10;;;;;;;24.04;100.00;98879.86;269648;1267;23465;-89
2023/06/23 16:12:50;;;;;;;30.60;18.80;;;;;;;23.74;100.00;98864.23;270475;1270;22543;-89
2023/06/23 16:19:15;;;;;;;31.60;19.20;;;;;;;23.52;100.00;98865.31;270157;1270;22211;-89
2023/06/23 16:26:24;;;;;;;33.90;20.60;;;;;;;23.36;100.00;98875.47;270140;1271;166557;-90
2023/06/23 16:33:00;;;;;;;27.20;19.30;;;;;;;23.21;100.00;98878.71;270074;1268;22556;-90
2023/06/23 16:39:03;;;;;;;31.00;22.10;;;;;;;23.10;100.00;98861.77;272671;1270;22228;-90
2023/06/23 16:45:32;;;;;;;27.10;21.30;;;;;;;22.95;100.00;98836.02;274113;1270;22900;-90
2023/06/23 16:51:35;;;;;;;;;;;;;;;22.88;100.00;98830.70;273740;1271;22524;-89
2023/06/23 16:57:39;;;;;;;31.30;21.90;;;;;;;22.82;100.00;98799.64;272977;1267;22666;-90
2023/06/23 17:03:46;;;;;;;28.90;21.80;;;;;;;22.70;100.00;98782.19;272523;1260;22393;-90
2023/06/23 17:09:47;;;;;;;31.80;22.50;;;;;;;22.65;100.00;98786.63;273917;1261;22168;-89
2023/06/23 17:15:50;;;;;;;30.30;22.80;;;;;;;22.54;100.00;98809.71;272498;1264;23818;-88
2023/06/23 17:21:54;;;;;;;29.40;20.60;;;;;;;22.45;100.00;98836.24;270664;1253;22541;-88
2023/06/23 17:27:56;;;;;;;26.70;22.10;;;;;;;22.41;100.00;98840.32;271807;1267;22567;-89
2023/06/23 17:34:04;;;;;;;34.50;23.30;;;;;;;22.41;100.00;98845.58;271789;1270;22411;-89
2023/06/23 17:40:08;;;;;;;27.50;20.90;;;;;;;22.30;100.00;98864.42;274051;1268;22364;-90
2023/06/23 17:46:10;;;;;;;28.10;21.90;;;;;;;22.21;100.00;98859.48;273181;1267;22261;-90
2023/06/23 17:52:33;;;;;;;27.20;20.10;;;;;;;22.19;100.00;98867.15;272115;1267;22618;-86
2023/06/23 17:58:42;;;;;;;21.50;14.70;;;;;;;22.14;100.00;98897.78;273057;1267;22370;-86
2023/06/23 18:05:08;;;;;;;21.10;12.10;;;;;;;22.00;100.00;98909.27;272776;1270;23362;-90
2023/06/23 18:11:25;;;;;;;18.20;10.00;;;;;;;21.83;100.00;98916.16;273036;1270;22262;-87
2023/06/23 18:17:50;;;;;;;15.20;9.30;;;;;;;21.67;100.00;98910.17;273202;1273;22004;-88
2023/06/23 18:23:51;;;;;;;12.90;9.70;;;;;;;21.58;100.00;98909.38;273688;1270;23752;-89
2023/06/23 18:29:52;;;;;;;18.80;9.20;;;;;;;21.47;100.00;98904.33;270468;1268;23876;-87
2023/06/23 18:36:20;;;;;;;12.10;9.50;;;;;;;21.35;100.00;98902.99;273691;1272;23208;-88
2023/06/23 18:42:53;;;;;;;14.80;10.50;;;;;;;21.26;100.00;98893.28;272977;1275;26537;-88
2023/06/23 18:48:55;;;;;;;14.10;10.00;;;;;;;21.14;100.00;98913.88;272643;1269;22396;-88
2023/06/23 18:55:17;;;;;;;12.20;9.80;;;;;;;21.05;100.00;98928.48;273136;1268;22550;-89
2023/06/23 19:01:54;;;;;;;11.70;9.40;;;;;;;20.94;100.00;98933.27;271871;1271;22526;-88
2023/06/23 19:08:59;;;;;;;16.60;10.90;;;;;;;20.87;100.00;98920.70;273731;1275;22997;-88
2023/06/23 19:15:05;;;;;;;13.00;9.40;;;;;;;20.80;100.00;98911.93;274015;1267;23462;-90
2023/06/23 19:21:07;;;;;;;17.10;11.30;;;;;;;20.73;100.00;98911.84;272331;1269;22326;-89
2023/06/23 19:27:09;;;;;;;14.00;9.80;;;;;;;20.65;100.00;98918.83;272794;1269;22985;-89
2023/06/23 19:33:10;;;;;;;14.30;10.60;;;;;;;20.60;100.00;98933.05;273312;1269;22369;-87
2023/06/23 19:46:05;;;;;;;17.50;11.10;;;;;;;20.56;100.00;98988.16;273175;1267;22555;-88
2023/06/23 19:52:08;;;;;;;17.60;10.20;;;;;;;20.54;100.00;98999.80;270574;1267;22225;-89
2023/06/23 19:58:46;;;;;;;16.30;11.80;;;;;;;20.50;100.00;99000.33;270657;1267;22556;-88
2023/06/23 20:04:49;;;;;;;13.60;10.50;;;;;;;20.37;100.00;99039.21;270516;1257;22541;-88
2023/06/23 20:11:39;;;;;;;14.60;11.30;;;;;;;20.29;100.00;99062.30;270254;1270;22494;-88
2023/06/23 20:17:43;;;;;;;14.60;9.60;;;;;;;20.25;100.00;99053.52;270177;1273;22466;-90
2023/06/23 20:23:58;;;;;;;13.20;10.00;;;;;;;20.23;100.00;99058.50;270270;1273;22551;-89
2023/06/23 20:30:44;;;;;;;18.70;12.80;;;;;;;20.21;100.00;99070.09;269262;1272;22707;-87
2023/06/23 20:37:08;;;;;;;15.80;9.00;;;;;;;20.13;100.00;99074.64;269137;1272;22693;-89
2023/06/23 20:43:27;;;;;;;7.60;6.40;;;;;;;20.09;100.00;99084.26;269381;1258;25483;-89
2023/06/23 20:58:08;;;;;;;9.60;6.50;;;;;;;19.97;100.00;99080.85;272267;1270;22557;-90
2023/06/23 21:04:19;;;;;;;8.90;5.90;;;;;;;19.92;100.00;99084.05;270205;1267;22544;-88
2023/06/23 21:11:11;;;;;;;10.60;6.50;;;;;;;19.83;100.00;99083.55;270123;1273;22616;-90
2023/06/23 21:17:17;;;;;;;11.10;6.80;;;;;;;19.72;100.00;99075.28;270188;1261;22524;-89
2023/06/23 21:23:19;;;;;;;9.80;6.90;;;;;;;19.61;100.00;99076.40;270163;1270;22954;-88
2023/06/23 21:29:20;;;;;;;10.20;6.20;;;;;;;19.49;100.00;99081.45;272617;1267;22186;-90
2023/06/23 21:35:27;;;;;;;13.20;7.40;;;;;;;19.49;100.00;99078.53;273483;1267;22209;-89
2023/06/23 21:41:29;;;;;;;11.60;6.20;;;;;;;19.50;100.00;99086.52;272236;1267;23311;-89
2023/06/23 21:47:56;;;;;;;13.90;6.60;;;;;;;19.47;100.00;99093.56;273164;1267;22204;-88
2023/06/23 21:54:22;;;;;;;7.00;5.40;;;;;;;19.38;100.00;99091.85;273812;1269;22266;-89
2023/06/23 22:00:53;;;;;;;9.50;5.40;;;;;;;19.27;100.00;99104.94;273276;1269;22347;-88
2023/06/23 22:06:57;;;;;;;8.00;5.90;;;;;;;19.28;100.00;99114.52;273181;1257;22433;-88
2023/06/23 22:28:31;;;;;;;6.30;4.70;;;;;;;19.18;100.00;99106.41;273467;1268;23934;-88
2023/06/23 22:35:11;;;;;;;8.50;5.20;;;;;;;19.11;100.00;99095.05;270931;1269;22557;-87
2023/06/23 22:41:37;;;;;;;6.30;5.50;;;;;;;19.08;100.00;99107.26;269858;1269;22530;-87
2023/06/23 22:48:04;;;;;;;7.80;6.00;;;;;;;19.02;100.00;99106.59;273676;1269;23195;-89
2023/06/23 22:54:53;;;;;;;6.80;5.60;;;;;;;18.93;100.00;99094.48;273759;1270;22897;-88
2023/06/23 23:01:22;;;;;;;6.30;5.30;;;;;;;18.88;100.00;99102.36;272544;1264;22547;-87
2023/06/23 23:07:35;;;;;;;9.10;5.50;;;;;;;18.79;100.00;99115.39;272192;1269;23091;-86
2023/06/23 23:14:24;;;;;;;8.50;5.80;;;;;;;18.71;100.00;99125.13;270190;1264;22544;-89
2023/06/23 23:20:53;;;;;;;7.90;5.40;;;;;;;18.59;100.00;99148.09;271020;1257;22351;-87
2023/06/23 23:28:01;;;;;;;9.20;4.70;;;;;;;18.49;100.00;99161.10;271606;1270;22336;-88
2023/06/23 23:34:03;;;;;;;6.90;5.50;;;;;;;18.51;100.00;99160.52;271176;1270;22523;-88
2023/06/23 23:40:12;;;;;;;5.50;4.50;;;;;;;18.52;100.00;99151.63;269796;1263;22528;-89
2023/06/23 23:47:01;;;;;;;8.20;4.10;;;;;;;18.48;100.00;99136.33;270441;1261;22705;-89
2023/06/23 23:53:27;;;;;;;8.00;4.40;;;;;;;18.41;100.00;99128.94;273088;1273;22364;-88
2023/06/23 23:59:54;;;;;;;5.50;4.40;;;;;;;18.33;100.00;99128.04;272207;1264;22264;-87
